Time;durP1;ratioP1;P1;durP2;ratioP2;P2;SDS_P1;SDS_P2;PMS_P1;PMS_P2;Temp;Humidity;BMP_temperature;BMP_pressure;BME280_temperature;BME280_humidity;BME280_pressure;Samples;Min_cycle;Max_cycle;Signal;HPM_P1;HPM_P2
2022/07/05 00:00:35;;;;;;;3.35;2.78;;;18.60;99.90;;;;;;5041375;28;20178;-37
2022/07/05 00:03:01;;;;;;;3.45;2.72;;;18.40;99.90;;;;;;5055967;28;20197;-37
2022/07/05 00:05:27;;;;;;;3.65;3.00;;;18.40;99.90;;;;;;5038743;28;20291;-37
2022/07/05 00:07:53;;;;;;;2.85;2.60;;;18.30;99.90;;;;;;5025854;28;20185;-37
2022/07/05 00:10:19;;;;;;;3.67;2.88;;;18.30;99.90;;;;;;5037834;28;20244;-37
2022/07/05 00:12:45;;;;;;;3.30;2.80;;;18.20;99.90;;;;;;5022512;28;20212;-38
2022/07/05 00:15:11;;;;;;;3.13;2.80;;;18.10;99.90;;;;;;5040248;28;20189;-37
2022/07/05 00:17:36;;;;;;;3.22;3.03;;;18.10;99.90;;;;;;5055031;28;20185;-38
2022/07/05 00:20:03;;;;;;;3.00;2.70;;;18.00;99.90;;;;;;5038661;28;20189;-37
2022/07/05 00:22:29;;;;;;;5.45;3.70;;;18.00;99.90;;;;;;5056768;28;20209;-37
2022/07/05 00:24:55;;;;;;;3.38;3.08;;;17.90;99.90;;;;;;5036464;28;20252;-37
2022/07/05 00:27:21;;;;;;;4.05;3.30;;;18.00;99.90;;;;;;5026013;28;20177;-37
2022/07/05 00:29:47;;;;;;;3.15;2.85;;;18.10;99.90;;;;;;5039067;28;20579;-39
2022/07/05 00:32:13;;;;;;;3.90;3.60;;;18.10;99.90;;;;;;5027895;28;20200;-38
2022/07/05 00:34:38;;;;;;;5.65;3.70;;;18.10;99.90;;;;;;5055361;28;20208;-37
2022/07/05 00:37:04;;;;;;;5.53;3.25;;;18.20;99.90;;;;;;5053440;28;20185;-37
2022/07/05 00:39:30;;;;;;;4.38;3.40;;;18.20;99.90;;;;;;5038724;28;20493;-37
2022/07/05 00:41:57;;;;;;;5.90;3.50;;;18.10;99.90;;;;;;5040961;28;20228;-37
2022/07/05 00:44:35;;;;;;;3.35;3.05;;;18.10;99.90;;;;;;5024750;28;20262;-37
2022/07/05 00:47:03;;;;;;;3.88;3.58;;;18.10;99.90;;;;;;5038393;28;20196;-37
2022/07/05 00:49:29;;;;;;;4.07;2.95;;;18.10;99.90;;;;;;5034436;28;20177;-37
2022/07/05 00:51:55;;;;;;;6.75;3.28;;;18.00;99.90;;;;;;5020922;28;20204;-38
2022/07/05 00:54:22;;;;;;;3.40;2.83;;;17.80;99.90;;;;;;5039778;28;20190;-37
2022/07/05 00:56:48;;;;;;;4.88;3.25;;;17.70;99.90;;;;;;5037608;28;20184;-37
2022/07/05 00:59:14;;;;;;;4.03;3.00;;;17.60;99.90;;;;;;5028700;28;20272;-37
2022/07/05 01:01:40;;;;;;;5.60;3.28;;;17.70;99.90;;;;;;5041570;28;20205;-37
2022/07/05 01:04:05;;;;;;;4.07;2.58;;;17.60;99.90;;;;;;5036333;28;20213;-37
2022/07/05 01:06:32;;;;;;;3.30;3.00;;;17.60;99.90;;;;;;5037606;28;20174;-38
2022/07/05 01:08:59;;;;;;;2.85;2.65;;;17.50;99.90;;;;;;5018003;28;20181;-37
2022/07/05 01:11:25;;;;;;;5.40;3.10;;;17.50;99.90;;;;;;5020972;28;20208;-37
2022/07/05 01:13:51;;;;;;;5.03;2.70;;;17.40;99.90;;;;;;5018404;28;20189;-37
2022/07/05 01:16:17;;;;;;;2.70;2.50;;;17.40;99.90;;;;;;5042962;28;20174;-37
2022/07/05 01:18:44;;;;;;;3.03;2.55;;;17.40;99.90;;;;;;5059804;28;20188;-38
2022/07/05 01:21:13;;;;;;;4.40;2.80;;;17.30;99.90;;;;;;5022781;28;20189;-39
2022/07/05 01:23:39;;;;;;;3.17;2.70;;;17.30;99.90;;;;;;5023045;28;20283;-41
2022/07/05 01:26:07;;;;;;;3.50;2.73;;;17.30;99.90;;;;;;5036494;28;20181;-37
2022/07/05 01:28:33;;;;;;;5.50;2.30;;;17.20;99.90;;;;;;5027097;28;20179;-37
2022/07/05 01:31:01;;;;;;;3.50;2.87;;;17.30;99.90;;;;;;5036463;28;20180;-38
2022/07/05 01:33:31;;;;;;;3.73;2.70;;;17.20;99.90;;;;;;5019228;28;20206;-37
2022/07/05 01:35:58;;;;;;;3.40;2.67;;;17.10;99.90;;;;;;5037814;28;20174;-38
2022/07/05 01:39:02;;;;;;;5.15;3.13;;;17.10;99.90;;;;;;5039305;28;20188;-38
2022/07/05 01:41:28;;;;;;;5.10;2.53;;;17.00;99.90;;;;;;5041669;28;20212;-39
2022/07/05 01:43:53;;;;;;;3.80;2.73;;;16.90;99.90;;;;;;5042347;28;20304;-38
2022/07/05 01:46:22;;;;;;;3.43;2.73;;;16.90;99.90;;;;;;5042449;28;20178;-37
2022/07/05 01:48:53;;;;;;;5.87;2.50;;;16.80;99.90;;;;;;5042034;28;20182;-40
2022/07/05 01:51:27;;;;;;;3.97;2.80;;;16.70;99.90;;;;;;5039337;28;20204;-38
2022/07/05 01:53:53;;;;;;;2.87;2.67;;;16.50;99.90;;;;;;5038365;28;20178;-37
2022/07/05 01:56:19;;;;;;;3.43;2.60;;;16.50;99.90;;;;;;5041378;28;20228;-39
2022/07/05 01:58:46;;;;;;;3.57;2.23;;;16.50;99.90;;;;;;5023816;28;20185;-38
2022/07/05 02:01:12;;;;;;;3.23;2.50;;;16.50;99.90;;;;;;5042168;28;20193;-37
2022/07/05 02:03:40;;;;;;;2.50;2.27;;;16.50;99.90;;;;;;5019621;28;20748;-37
2022/07/05 02:06:10;;;;;;;9.27;2.90;;;16.60;99.90;;;;;;5015475;28;20544;-37
2022/07/05 02:08:36;;;;;;;4.13;2.67;;;16.60;99.90;;;;;;5017490;28;20178;-37
2022/07/05 02:11:03;;;;;;;4.07;2.40;;;16.60;99.90;;;;;;5018896;28;20174;-37
2022/07/05 02:13:29;;;;;;;2.70;2.40;;;16.50;99.90;;;;;;5029919;28;20289;-37
2022/07/05 02:15:55;;;;;;;4.27;2.70;;;16.50;99.90;;;;;;5032071;28;20182;-37
2022/07/05 02:18:22;;;;;;;4.27;2.90;;;16.50;99.90;;;;;;5031022;28;20221;-36
2022/07/05 02:20:49;;;;;;;3.43;2.60;;;16.50;99.90;;;;;;5031701;28;20186;-39
2022/07/05 02:23:15;;;;;;;2.80;2.60;;;16.40;99.90;;;;;;5015239;28;20210;-37
2022/07/05 02:25:41;;;;;;;3.53;2.60;;;16.40;99.90;;;;;;5022979;28;20277;-37
2022/07/05 02:28:13;;;;;;;2.60;2.40;;;16.40;99.90;;;;;;5016746;28;20189;-40
2022/07/05 02:30:41;;;;;;;3.57;2.90;;;16.30;99.90;;;;;;5030008;28;20182;-36
2022/07/05 02:33:07;;;;;;;3.43;2.60;;;16.30;99.90;;;;;;5017055;28;20208;-38
2022/07/05 02:35:33;;;;;;;4.73;2.67;;;16.30;99.90;;;;;;5017755;28;20202;-37
2022/07/05 02:37:58;;;;;;;2.70;2.40;;;16.30;99.90;;;;;;5031157;28;20181;-36
2022/07/05 02:40:24;;;;;;;4.50;2.43;;;16.30;99.90;;;;;;5024114;28;20190;-37
2022/07/05 02:42:51;;;;;;;3.73;2.80;;;16.40;99.90;;;;;;5050458;28;20214;-37
2022/07/05 02:45:18;;;;;;;2.70;2.37;;;16.30;99.90;;;;;;5033457;28;20201;-37
2022/07/05 02:47:49;;;;;;;3.50;2.47;;;16.30;99.90;;;;;;5018888;28;20186;-39
2022/07/05 02:50:16;;;;;;;3.07;2.33;;;16.30;99.90;;;;;;5032448;28;20170;-36
2022/07/05 02:52:47;;;;;;;3.90;2.70;;;16.30;99.90;;;;;;5033716;28;20201;-36
2022/07/05 02:55:14;;;;;;;4.20;2.50;;;16.40;99.90;;;;;;5050438;28;20206;-36
2022/07/05 02:57:40;;;;;;;2.97;2.37;;;16.20;99.90;;;;;;5016828;28;20185;-39
2022/07/05 03:00:10;;;;;;;3.03;2.33;;;16.20;99.90;;;;;;5018305;28;20472;-37
2022/07/05 03:02:40;;;;;;;3.63;2.40;;;16.10;99.90;;;;;;5017141;28;20217;-36
2022/07/05 03:05:08;;;;;;;3.73;2.57;;;16.10;99.90;;;;;;5014272;28;20178;-38
2022/07/05 03:07:34;;;;;;;3.37;2.50;;;16.00;99.90;;;;;;5023006;28;20217;-36
2022/07/05 03:10:01;;;;;;;4.97;2.47;;;16.00;99.90;;;;;;5018257;28;20175;-36
2022/07/05 03:12:28;;;;;;;3.77;2.83;;;16.00;99.90;;;;;;5034263;28;20241;-38
2022/07/05 03:14:55;;;;;;;5.13;2.80;;;16.00;99.90;;;;;;5016970;28;20174;-36
2022/07/05 03:17:22;;;;;;;3.60;3.00;;;16.00;99.90;;;;;;5030641;28;20179;-38
2022/07/05 03:19:48;;;;;;;4.13;2.70;;;16.00;99.90;;;;;;5017448;28;20720;-36
2022/07/05 03:22:15;;;;;;;4.03;2.40;;;15.90;99.90;;;;;;5015758;28;20210;-38
2022/07/05 03:24:42;;;;;;;6.37;2.93;;;15.80;99.90;;;;;;5013840;28;20178;-36
2022/07/05 03:27:10;;;;;;;5.43;2.87;;;15.70;99.90;;;;;;5017276;28;20265;-37
2022/07/05 03:29:38;;;;;;;3.47;2.70;;;15.60;99.90;;;;;;5033727;28;20178;-41
2022/07/05 03:32:04;;;;;;;3.43;3.10;;;15.70;99.90;;;;;;5044552;28;20198;-36
2022/07/05 03:34:30;;;;;;;5.87;2.90;;;15.60;99.90;;;;;;5021707;28;20187;-36
2022/07/05 03:36:58;;;;;;;3.90;3.03;;;15.60;99.90;;;;;;5006915;28;20216;-37
2022/07/05 03:39:24;;;;;;;3.33;2.47;;;15.60;99.90;;;;;;5017168;28;20186;-37
2022/07/05 03:41:51;;;;;;;4.03;2.70;;;15.60;99.90;;;;;;5033392;28;20194;-37
2022/07/05 03:44:20;;;;;;;3.03;2.77;;;15.60;99.90;;;;;;5033134;28;20700;-36
2022/07/05 03:46:46;;;;;;;3.57;2.70;;;15.70;99.90;;;;;;5041587;28;20193;-37
2022/07/05 03:49:13;;;;;;;2.57;2.37;;;15.60;99.90;;;;;;5017247;28;20177;-37
2022/07/05 03:51:40;;;;;;;5.17;2.50;;;15.60;99.90;;;;;;5017301;28;20201;-40
2022/07/05 03:54:06;;;;;;;4.03;2.57;;;15.60;99.90;;;;;;5016643;28;20177;-38
2022/07/05 03:56:32;;;;;;;5.30;2.67;;;15.50;99.90;;;;;;5023072;28;20232;-37
2022/07/05 03:59:03;;;;;;;3.83;3.17;;;15.50;99.90;;;;;;5009574;28;20178;-36
2022/07/05 04:01:30;;;;;;;5.67;3.13;;;15.50;99.90;;;;;;5021306;28;20213;-39
2022/07/05 04:03:56;;;;;;;3.80;2.93;;;15.50;99.90;;;;;;5016777;28;20240;-36
2022/07/05 04:06:25;;;;;;;3.33;2.70;;;15.50;99.90;;;;;;5032576;28;20182;-37
2022/07/05 04:08:53;;;;;;;5.90;3.30;;;15.40;99.90;;;;;;5031291;28;20174;-37
2022/07/05 04:11:19;;;;;;;4.07;2.90;;;15.30;99.90;;;;;;5022007;28;20178;-37
2022/07/05 04:13:49;;;;;;;4.50;2.87;;;15.30;99.90;;;;;;5016831;28;20189;-35
2022/07/05 04:16:18;;;;;;;7.37;3.17;;;15.30;99.90;;;;;;5016637;28;20227;-37
2022/07/05 04:18:48;;;;;;;4.53;2.97;;;15.30;99.90;;;;;;5032696;28;20189;-38
2022/07/05 04:21:20;;;;;;;4.03;3.10;;;15.30;99.90;;;;;;5042047;28;20190;-37
2022/07/05 04:23:48;;;;;;;3.17;2.80;;;15.30;99.90;;;;;;5009136;28;20206;-35
2022/07/05 04:26:17;;;;;;;3.20;3.00;;;15.40;99.90;;;;;;5013269;28;20305;-36
2022/07/05 04:28:45;;;;;;;3.10;2.90;;;15.40;99.90;;;;;;5013782;28;20174;-36
2022/07/05 04:31:14;;;;;;;4.30;2.67;;;15.40;99.90;;;;;;5032658;28;20206;-37
2022/07/05 04:33:44;;;;;;;3.70;2.73;;;15.40;99.90;;;;;;5046113;28;20197;-36
2022/07/05 04:36:12;;;;;;;4.50;2.93;;;15.50;99.90;;;;;;5019525;28;20182;-36
2022/07/05 04:38:39;;;;;;;4.53;2.80;;;15.50;99.90;;;;;;5010479;28;20240;-36
2022/07/05 04:41:05;;;;;;;4.60;3.10;;;15.60;99.90;;;;;;5025303;28;20201;-37
2022/07/05 04:43:34;;;;;;;4.47;2.80;;;15.60;99.90;;;;;;5016823;28;20210;-36
2022/07/05 04:46:01;;;;;;;4.20;2.60;;;15.60;99.90;;;;;;5015429;28;20178;-37
2022/07/05 04:48:27;;;;;;;4.73;2.90;;;15.60;99.90;;;;;;5031998;28;20177;-36
2022/07/05 04:50:54;;;;;;;6.10;3.00;;;15.60;99.90;;;;;;5031203;28;20242;-37
2022/07/05 04:53:21;;;;;;;4.67;2.90;;;15.60;99.90;;;;;;5022514;28;20229;-37
2022/07/05 04:55:46;;;;;;;5.10;2.83;;;15.60;99.90;;;;;;5014302;28;20647;-35
2022/07/05 04:58:12;;;;;;;7.70;2.87;;;15.60;99.90;;;;;;5026608;28;20181;-37
2022/07/05 05:00:39;;;;;;;5.50;3.00;;;15.70;99.90;;;;;;5043554;28;20666;-36
2022/07/05 05:03:04;;;;;;;3.87;3.10;;;15.80;99.90;;;;;;5005381;28;20209;-36
2022/07/05 05:05:30;;;;;;;5.93;3.10;;;15.90;99.90;;;;;;5010060;28;20232;-35
2022/07/05 05:07:56;;;;;;;5.87;3.37;;;16.00;99.90;;;;;;5013977;28;20174;-36
2022/07/05 05:10:24;;;;;;;4.30;2.70;;;16.20;99.90;;;;;;5014816;28;20177;-36
2022/07/05 05:12:49;;;;;;;5.40;3.10;;;16.30;99.90;;;;;;5032589;28;20210;-35
2022/07/05 05:15:17;;;;;;;2.73;2.53;;;16.30;99.90;;;;;;5036209;28;20178;-36
2022/07/05 05:17:44;;;;;;;5.73;3.00;;;16.40;99.90;;;;;;5020261;28;20173;-35
2022/07/05 05:20:14;;;;;;;2.77;2.57;;;16.50;99.90;;;;;;5034483;28;20174;-35
2022/07/05 05:25:17;;;;;;;3.93;3.00;;;16.60;99.90;;;;;;5050462;28;20208;-29
2022/07/05 05:27:47;;;;;;;7.57;2.83;;;16.70;99.90;;;;;;5052726;28;20174;-30
2022/07/05 05:30:14;;;;;;;5.70;3.10;;;16.70;99.90;;;;;;5032887;28;20265;-29
2022/07/05 05:32:40;;;;;;;6.00;3.03;;;16.80;99.90;;;;;;5035676;28;20213;-30
2022/07/05 05:35:07;;;;;;;2.83;2.63;;;16.80;99.90;;;;;;5018812;28;20174;-29
2022/07/05 05:37:49;;;;;;;5.53;2.73;;;17.00;99.90;;;;;;5019648;28;20190;-28
2022/07/05 05:40:16;;;;;;;3.63;2.67;;;17.10;99.90;;;;;;5053922;28;20185;-30
2022/07/05 05:42:42;;;;;;;2.97;2.73;;;17.20;99.90;;;;;;5036195;28;20217;-29
2022/07/05 05:45:09;;;;;;;6.33;3.03;;;17.40;99.90;;;;;;5035307;28;20650;-31
2022/07/05 05:47:50;;;;;;;5.37;3.10;;;17.50;99.90;;;;;;5019286;28;20182;-30
2022/07/05 05:50:20;;;;;;;3.07;2.70;;;17.70;99.90;;;;;;5035621;28;20231;-30
2022/07/05 05:52:46;;;;;;;4.00;2.97;;;17.90;99.90;;;;;;5018695;28;20201;-29
2022/07/05 05:55:12;;;;;;;4.25;2.42;;;18.10;99.90;;;;;;5035247;28;20189;-31
2022/07/05 05:57:38;;;;;;;3.22;2.50;;;18.10;99.90;;;;;;5019106;28;20185;-31
2022/07/05 06:00:05;;;;;;;3.25;2.55;;;18.20;99.90;;;;;;5035234;28;20182;-30
2022/07/05 06:02:38;;;;;;;3.35;2.50;;;18.30;99.90;;;;;;5036120;28;20213;-28
2022/07/05 06:05:04;;;;;;;3.42;2.47;;;18.40;99.90;;;;;;5018948;28;20186;-28
2022/07/05 06:07:30;;;;;;;2.85;2.15;;;18.60;99.90;;;;;;5035097;28;20232;-29
2022/07/05 06:09:56;;;;;;;3.80;2.50;;;18.80;99.90;;;;;;5053328;28;20194;-29
2022/07/05 06:12:22;;;;;;;4.78;2.80;;;18.90;99.90;;;;;;5035390;28;20198;-29
2022/07/05 06:14:48;;;;;;;5.53;2.90;;;18.90;99.90;;;;;;5030589;28;20277;-29
2022/07/05 06:17:13;;;;;;;5.32;2.88;;;19.10;99.90;;;;;;5018378;28;20182;-30
2022/07/05 06:19:39;;;;;;;4.50;2.55;;;19.30;99.90;;;;;;5018756;28;20174;-29
2022/07/05 06:22:05;;;;;;;4.30;2.85;;;19.40;99.90;;;;;;5019821;28;20212;-29
2022/07/05 06:24:31;;;;;;;4.10;2.40;;;19.60;99.90;;;;;;5033587;28;20213;-30
2022/07/05 06:26:57;;;;;;;3.42;2.67;;;19.70;99.90;;;;;;5035256;28;20174;-29
2022/07/05 06:29:22;;;;;;;3.60;2.55;;;19.70;99.90;;;;;;5018616;28;20272;-29
2022/07/05 06:31:49;;;;;;;5.03;2.67;;;19.80;99.90;;;;;;5034968;28;20204;-30
2022/07/05 06:34:15;;;;;;;3.95;2.88;;;19.90;99.90;;;;;;5035113;28;20233;-28
2022/07/05 06:36:41;;;;;;;5.00;2.70;;;19.90;99.90;;;;;;5035200;28;20193;-29
2022/07/05 06:39:07;;;;;;;3.83;2.70;;;20.10;99.90;;;;;;5018716;28;20181;-30
2022/07/05 06:41:32;;;;;;;3.78;2.65;;;20.20;99.90;;;;;;5034395;28;20178;-29
2022/07/05 06:43:58;;;;;;;3.00;2.22;;;20.20;99.90;;;;;;5017782;28;20209;-31
2022/07/05 06:46:24;;;;;;;6.82;2.78;;;20.30;99.90;;;;;;5035070;28;20190;-31
2022/07/05 06:48:50;;;;;;;5.15;2.13;;;20.50;99.90;;;;;;5018760;28;20255;-29
2022/07/05 06:51:16;;;;;;;4.50;1.90;;;20.40;99.90;;;;;;5018170;28;20204;-30
2022/07/05 06:53:42;;;;;;;3.70;2.00;;;20.60;99.90;;;;;;5034562;28;20259;-29
2022/07/05 06:56:07;;;;;;;5.40;3.05;;;20.60;99.90;;;;;;5052522;28;20239;-29
2022/07/05 06:58:33;;;;;;;4.15;2.80;;;20.80;99.90;;;;;;5017868;28;20217;-30
2022/07/05 07:00:59;;;;;;;4.10;2.38;;;21.10;99.90;;;;;;5052468;28;20213;-28
2022/07/05 07:03:25;;;;;;;3.47;1.90;;;21.30;99.90;;;;;;5017916;28;20225;-30
2022/07/05 07:05:51;;;;;;;3.28;1.75;;;21.50;99.90;;;;;;5034569;28;20181;-30
2022/07/05 07:11:01;;;;;;;2.92;1.80;;;21.70;99.90;;;;;;5034267;28;20177;-30
2022/07/05 07:13:27;;;;;;;2.85;2.25;;;21.90;99.90;;;;;;5034549;28;20201;-30
2022/07/05 07:15:52;;;;;;;1.70;1.60;;;22.10;99.90;;;;;;5017797;28;20184;-29
2022/07/05 07:18:18;;;;;;;2.92;1.70;;;22.30;99.90;;;;;;5034184;28;20178;-30
2022/07/05 07:20:44;;;;;;;1.85;1.67;;;22.40;99.90;;;;;;5017777;28;20228;-30
2022/07/05 07:23:10;;;;;;;2.67;1.80;;;22.50;99.90;;;;;;5017449;28;20300;-31
2022/07/05 07:25:36;;;;;;;2.53;1.70;;;22.70;99.90;;;;;;5017349;28;20181;-30
2022/07/05 07:28:02;;;;;;;3.75;1.55;;;22.70;99.90;;;;;;5017898;28;20200;-31
2022/07/05 07:30:29;;;;;;;2.92;2.00;;;22.80;99.90;;;;;;5017495;28;20175;-29
2022/07/05 07:32:54;;;;;;;2.13;1.45;;;22.90;99.90;;;;;;5050964;28;20212;-32
2022/07/05 07:35:21;;;;;;;2.67;1.40;;;23.00;99.90;;;;;;5036355;28;20267;-31
2022/07/05 07:37:47;;;;;;;2.80;1.50;;;23.10;99.90;;;;;;5036876;28;20201;-31
2022/07/05 07:40:13;;;;;;;2.45;1.30;;;23.10;99.90;;;;;;5033645;28;20185;-30
2022/07/05 07:42:39;;;;;;;2.15;1.42;;;23.00;99.90;;;;;;5017523;28;20220;-31
2022/07/05 07:45:06;;;;;;;3.47;1.60;;;23.20;99.90;;;;;;5033873;28;20638;-31
2022/07/05 07:47:32;;;;;;;1.95;1.58;;;23.20;99.90;;;;;;5017405;28;20205;-29
2022/07/05 07:49:59;;;;;;;3.20;1.58;;;23.30;99.90;;;;;;5017455;28;20178;-31
2022/07/05 07:52:25;;;;;;;3.58;1.63;;;23.50;99.90;;;;;;5033581;28;20206;-31
2022/07/05 07:54:51;;;;;;;3.50;1.70;;;23.40;99.90;;;;;;5051209;28;20249;-30
2022/07/05 07:57:17;;;;;;;2.50;1.80;;;23.30;99.90;;;;;;5051843;28;20253;-31
2022/07/05 07:59:43;;;;;;;2.92;1.70;;;23.40;99.90;;;;;;5033696;28;20174;-33
2022/07/05 08:02:08;;;;;;;2.58;1.52;;;23.60;99.90;;;;;;5033700;28;20185;-31
2022/07/05 08:04:34;;;;;;;4.32;1.40;;;23.80;99.90;;;;;;5033138;28;20212;-31
2022/07/05 08:07:00;;;;;;;4.15;1.50;;;24.10;99.90;;;;;;5016713;28;20189;-31
2022/07/05 08:09:26;;;;;;;1.73;1.50;;;24.10;99.90;;;;;;5033275;28;20186;-31
2022/07/05 08:11:52;;;;;;;2.35;1.60;;;24.30;99.90;;;;;;5051291;28;20189;-31
2022/07/05 08:14:18;;;;;;;2.28;1.60;;;24.30;99.90;;;;;;5016443;28;20186;-33
2022/07/05 08:16:47;;;;;;;3.72;1.30;;;24.50;99.90;;;;;;5016762;28;20182;-31
2022/07/05 08:21:57;;;;;;;1.83;1.40;;;24.90;99.90;;;;;;5033302;28;20239;-31
2022/07/05 08:24:23;;;;;;;1.83;1.20;;;24.80;99.90;;;;;;5032755;28;20213;-30
2022/07/05 08:26:49;;;;;;;3.50;1.70;;;24.90;99.90;;;;;;5016673;28;20251;-31
2022/07/05 08:29:15;;;;;;;3.88;1.70;;;25.10;99.90;;;;;;5016544;28;20178;-30
2022/07/05 08:31:44;;;;;;;3.03;1.20;;;25.20;99.90;;;;;;5016272;28;20343;-32
2022/07/05 08:34:11;;;;;;;2.15;1.52;;;25.30;99.90;;;;;;5015923;28;20207;-31
2022/07/05 08:36:37;;;;;;;2.75;1.55;;;25.30;99.90;;;;;;5016399;28;20198;-32
2022/07/05 08:39:04;;;;;;;6.90;4.60;;;25.50;99.90;;;;;;5016514;28;20181;-31
2022/07/05 08:41:35;;;;;;;2.55;1.67;;;25.70;99.90;;;;;;5016566;28;20184;-32
2022/07/05 08:44:03;;;;;;;1.80;1.50;;;25.80;99.90;;;;;;5032686;28;20213;-30
2022/07/05 08:46:32;;;;;;;1.75;1.38;;;26.00;99.90;;;;;;5032289;28;20284;-32
2022/07/05 08:49:00;;;;;;;2.90;1.27;;;26.00;99.90;;;;;;5015690;28;20205;-31
2022/07/05 08:51:28;;;;;;;1.90;1.70;;;26.20;99.90;;;;;;5032840;28;20166;-30
2022/07/05 08:53:57;;;;;;;2.85;1.10;;;26.00;99.90;;;;;;5015939;28;20205;-31
2022/07/05 08:56:24;;;;;;;2.72;1.52;;;26.20;99.90;;;;;;5032812;28;20232;-32
2022/07/05 08:58:49;;;;;;;1.65;1.15;;;25.90;99.90;;;;;;5016263;28;20182;-31
2022/07/05 09:01:16;;;;;;;1.77;1.10;;;26.00;99.90;;;;;;5015976;28;20182;-31
2022/07/05 09:03:52;;;;;;;1.95;1.40;;;26.30;99.90;;;;;;5032462;28;20213;-30
2022/07/05 09:06:20;;;;;;;2.70;1.45;;;26.70;99.90;;;;;;5032658;28;20181;-31
2022/07/05 09:08:48;;;;;;;2.55;1.60;;;26.70;99.90;;;;;;5032734;28;20174;-30
2022/07/05 09:11:16;;;;;;;1.48;1.00;;;27.00;99.90;;;;;;5032589;28;20204;-31
2022/07/05 09:13:49;;;;;;;4.05;3.72;;;27.10;99.90;;;;;;5032240;28;20224;-31
2022/07/05 09:16:16;;;;;;;5.47;4.75;;;27.10;99.00;;;;;;5032580;28;20180;-31
2022/07/05 09:18:43;;;;;;;14.02;12.60;;;27.20;98.80;;;;;;5016232;28;20185;-31
2022/07/05 09:21:26;;;;;;;1.63;1.52;;;27.00;97.80;;;;;;5032574;28;20272;-31
2022/07/05 09:24:05;;;;;;;3.50;2.80;;;26.80;99.30;;;;;;5031939;28;20249;-31
2022/07/05 09:26:48;;;;;;;1.40;1.30;;;27.00;99.60;;;;;;5050261;28;20177;-32
2022/07/05 09:29:19;;;;;;;2.25;1.20;;;27.20;99.90;;;;;;5015899;28;20178;-30
2022/07/05 09:31:52;;;;;;;3.90;3.50;;;27.50;99.80;;;;;;5032156;28;20178;-32
2022/07/05 09:34:20;;;;;;;1.38;1.27;;;27.70;98.60;;;;;;5032089;28;20182;-30
2022/07/05 09:36:59;;;;;;;1.20;1.10;;;27.50;98.10;;;;;;5012365;28;20190;-31
2022/07/05 09:39:37;;;;;;;2.10;1.30;;;27.60;98.60;;;;;;5012734;28;20182;-31
2022/07/05 09:42:18;;;;;;;3.15;1.25;;;27.90;99.90;;;;;;5028997;28;20183;-31
2022/07/05 09:44:46;;;;;;;1.33;1.10;;;28.00;98.20;;;;;;5012325;28;20236;-31
2022/07/05 09:47:13;;;;;;;20.55;17.10;;;28.10;96.60;;;;;;5019073;28;20174;-32
2022/07/05 09:50:03;;;;;;;3.10;2.38;;;28.20;91.50;;;;;;5026183;28;20178;-32
2022/07/05 09:52:30;;;;;;;3.67;1.25;;;28.40;90.30;;;;;;5034925;28;20197;-32
2022/07/05 09:55:08;;;;;;;0.95;0.90;;;28.70;92.20;;;;;;5042224;28;20170;-32
2022/07/05 09:57:36;;;;;;;2.15;1.00;;;28.70;91.60;;;;;;5024552;28;20173;-32
2022/07/05 10:00:14;;;;;;;2.17;1.10;;;28.60;93.10;;;;;;5064084;28;20208;-31
2022/07/05 10:02:51;;;;;;;9.85;8.85;;;28.50;93.30;;;;;;5029611;28;20189;-31
2022/07/05 10:05:25;;;;;;;9.57;7.32;;;28.40;93.10;;;;;;5063763;28;20208;-32
2022/07/05 10:07:55;;;;;;;1.58;1.25;;;28.60;92.80;;;;;;5043529;28;20183;-32
2022/07/05 10:10:23;;;;;;;20.08;17.92;;;28.40;92.50;;;;;;5029727;28;20178;-31
2022/07/05 10:13:02;;;;;;;14.13;11.82;;;28.60;91.30;;;;;;5028560;28;20201;-31
2022/07/05 10:15:36;;;;;;;4.45;1.75;;;28.70;91.70;;;;;;5028504;28;20192;-32
2022/07/05 10:18:22;;;;;;;1.52;1.20;;;28.90;91.90;;;;;;5055389;28;20246;-30
2022/07/05 10:20:51;;;;;;;1.42;1.00;;;29.20;92.40;;;;;;5055336;28;20189;-33
2022/07/05 10:23:18;;;;;;;3.17;1.10;;;29.40;92.70;;;;;;5055559;28;20241;-31
2022/07/05 10:25:49;;;;;;;1.13;0.95;;;29.50;91.90;;;;;;5073053;28;20169;-32
2022/07/05 10:28:17;;;;;;;1.30;1.20;;;29.40;91.80;;;;;;5054857;28;20178;-32
2022/07/05 10:30:49;;;;;;;2.05;1.00;;;29.40;92.40;;;;;;5054980;28;20185;-32
2022/07/05 10:33:27;;;;;;;1.13;1.00;;;29.00;92.70;;;;;;5054303;28;20254;-32
2022/07/05 10:35:58;;;;;;;2.03;1.25;;;29.00;92.40;;;;;;5026705;28;20186;-32
2022/07/05 10:38:25;;;;;;;2.83;1.20;;;28.50;92.50;;;;;;5041354;28;20212;-32
2022/07/05 10:40:55;;;;;;;5.72;4.35;;;28.40;93.30;;;;;;5045427;28;20178;-30
2022/07/05 10:43:25;;;;;;;29.80;25.83;;;28.10;92.10;;;;;;5032232;28;20205;-31
2022/07/05 10:45:51;;;;;;;4.32;3.10;;;28.10;93.10;;;;;;5017787;28;20170;-31
2022/07/05 10:48:25;;;;;;;3.08;1.38;;;28.10;93.50;;;;;;5034927;28;20210;-31
2022/07/05 10:50:55;;;;;;;1.58;1.48;;;28.30;93.60;;;;;;5052941;28;20189;-31
2022/07/05 10:53:32;;;;;;;1.20;1.10;;;28.10;91.80;;;;;;5034825;28;20321;-32
2022/07/05 10:56:04;;;;;;;2.03;1.23;;;28.40;92.20;;;;;;5017234;28;20193;-32
2022/07/05 10:58:33;;;;;;;2.50;1.00;;;28.60;93.80;;;;;;5033008;28;20246;-32
2022/07/05 11:01:20;;;;;;;1.30;1.00;;;29.00;94.80;;;;;;5017088;28;20259;-31
2022/07/05 11:04:01;;;;;;;1.05;0.90;;;29.40;92.30;;;;;;5017467;28;20741;-31
2022/07/05 11:06:29;;;;;;;1.55;1.10;;;29.60;91.20;;;;;;5033529;28;20186;-32
2022/07/05 11:08:58;;;;;;;1.52;1.00;;;29.60;90.60;;;;;;5016507;28;20210;-31
2022/07/05 11:11:42;;;;;;;1.95;0.90;;;29.40;92.00;;;;;;5033666;28;20253;-32
2022/07/05 11:14:22;;;;;;;2.72;1.00;;;29.10;92.00;;;;;;5050613;28;20360;-32
2022/07/05 11:17:11;;;;;;;2.95;1.10;;;29.60;92.00;;;;;;5017059;28;20272;-32
2022/07/05 11:19:59;;;;;;;1.30;1.20;;;29.70;91.50;;;;;;5040161;28;20185;-31
2022/07/05 11:22:25;;;;;;;2.05;1.17;;;29.70;91.10;;;;;;5037223;28;20228;-31
2022/07/05 11:24:54;;;;;;;2.33;1.30;;;29.70;92.20;;;;;;5162312;22;20221;-41
2022/07/05 11:27:20;;;;;;;1.73;1.00;;;29.40;88.70;;;;;;5042360;28;20177;-40
2022/07/05 11:29:52;;;;;;;1.40;0.98;;;29.10;89.50;;;;;;5044461;28;20562;-39
2022/07/05 11:32:19;;;;;;;1.10;1.00;;;28.90;89.50;;;;;;5063236;28;20173;-41
2022/07/05 11:34:55;;;;;;;2.30;1.15;;;29.00;90.80;;;;;;5055066;28;20208;-41
2022/07/05 11:37:34;;;;;;;1.67;1.40;;;29.40;91.60;;;;;;5068751;28;20263;-40
2022/07/05 11:40:12;;;;;;;2.03;1.38;;;29.70;91.90;;;;;;5037135;28;20177;-39
2022/07/05 11:42:47;;;;;;;1.33;1.00;;;30.00;89.60;;;;;;5037334;28;20177;-39
2022/07/05 11:45:14;;;;;;;2.53;0.90;;;30.30;90.90;;;;;;5053080;28;20209;-40
2022/07/05 11:47:41;;;;;;;1.38;0.90;;;30.50;90.10;;;;;;5037731;28;20179;-39
2022/07/05 11:50:09;;;;;;;1.15;1.00;;;30.40;90.00;;;;;;5057550;28;20193;-40
2022/07/05 11:52:36;;;;;;;2.05;1.00;;;30.00;89.50;;;;;;5074006;28;20172;-39
2022/07/05 11:55:06;;;;;;;1.60;0.95;;;29.70;90.30;;;;;;5076529;28;20276;-39
2022/07/05 11:57:32;;;;;;;1.13;1.00;;;29.60;90.80;;;;;;5069930;28;20176;-39
2022/07/05 11:59:57;;;;;;;2.67;1.10;;;29.60;90.90;;;;;;5063523;28;20181;-39
2022/07/05 12:02:23;;;;;;;1.83;1.15;;;29.60;91.00;;;;;;5065639;28;20308;-39
2022/07/05 12:04:52;;;;;;;1.08;0.98;;;29.70;90.10;;;;;;5055325;28;20205;-39
2022/07/05 12:07:25;;;;;;;2.72;1.05;;;29.50;90.10;;;;;;5053128;28;20215;-40
2022/07/05 12:12:42;;;;;;;1.23;1.00;;;29.80;90.20;;;;;;5052328;28;20184;-39
2022/07/05 12:15:17;;;;;;;1.15;1.00;;;29.60;85.10;;;;;;5040104;28;20751;-41
2022/07/05 12:17:44;;;;;;;1.15;1.05;;;29.90;88.50;;;;;;5062514;28;20226;-43
2022/07/05 12:20:13;;;;;;;1.75;1.02;;;30.00;87.40;;;;;;5061556;28;20279;-40
2022/07/05 12:22:44;;;;;;;1.58;0.90;;;29.90;88.90;;;;;;5035847;28;20178;-40
2022/07/05 12:25:16;;;;;;;1.08;0.98;;;29.60;88.60;;;;;;5054665;28;20205;-42
2022/07/05 12:27:47;;;;;;;2.75;1.17;;;29.50;90.10;;;;;;5072599;28;20227;-39
2022/07/05 12:30:14;;;;;;;1.08;0.98;;;29.40;91.50;;;;;;5038415;28;20196;-40
2022/07/05 12:32:57;;;;;;;0.90;0.90;;;29.40;90.30;;;;;;5033860;28;20340;-39
2022/07/05 12:35:41;;;;;;;2.35;1.10;;;29.60;88.40;;;;;;5050746;28;20183;-40
2022/07/05 12:38:14;;;;;;;2.85;1.02;;;30.10;89.40;;;;;;5066150;28;20277;-42
2022/07/05 12:40:42;;;;;;;3.60;1.05;;;30.40;87.90;;;;;;5033797;28;20243;-39
2022/07/05 12:43:16;;;;;;;1.10;1.00;;;30.70;88.00;;;;;;5032128;28;20259;-39
2022/07/05 12:45:58;;;;;;;1.60;1.00;;;30.90;84.00;;;;;;5066340;28;20172;-39
2022/07/05 12:48:39;;;;;;;1.17;1.00;;;31.00;85.30;;;;;;5034585;28;20181;-40
2022/07/05 12:51:07;;;;;;;3.70;1.10;;;31.00;86.30;;;;;;5067626;28;20177;-39
2022/07/05 12:59:09;;;;;;;3.22;1.10;;;30.40;88.60;;;;;;5070771;28;20259;-38
2022/07/05 13:01:41;;;;;;;1.90;1.35;;;30.30;88.50;;;;;;5040436;28;20276;-39
2022/07/05 13:04:09;;;;;;;2.78;1.10;;;30.00;90.20;;;;;;5051397;28;20216;-39
2022/07/05 13:06:55;;;;;;;1.85;1.15;;;29.90;88.20;;;;;;5067709;28;20177;-38
2022/07/05 13:09:30;;;;;;;1.50;1.08;;;29.70;90.00;;;;;;5033095;28;20179;-39